sensor_id;sensor_type;location;lat;lon;timestamp;P1;durP1;ratioP1;P2;durP2;ratioP2
34645;SDS011;20857;47.808;12.482;2023-07-02T00:01:18;1620.60;;;429.65;;
34645;SDS011;20857;47.808;12.482;2023-07-02T00:03:44;1335.13;;;444.00;;
34645;SDS011;20857;47.808;12.482;2023-07-02T00:06:10;1361.65;;;373.63;;
34645;SDS011;20857;47.808;12.482;2023-07-02T00:08:35;755.03;;;179.48;;
34645;SDS011;20857;47.808;12.482;2023-07-02T00:11:01;1565.55;;;476.33;;
34645;SDS011;20857;47.808;12.482;2023-07-02T00:13:26;1356.20;;;493.60;;
34645;SDS011;20857;47.808;12.482;2023-07-02T00:15:52;1174.80;;;364.83;;
34645;SDS011;20857;47.808;12.482;2023-07-02T00:18:17;1437.07;;;624.05;;
34645;SDS011;20857;47.808;12.482;2023-07-02T00:20:43;1729.38;;;813.25;;
34645;SDS011;20857;47.808;12.482;2023-07-02T00:23:09;1999.90;;;999.90;;
34645;SDS011;20857;47.808;12.482;2023-07-02T00:25:35;1999.90;;;999.90;;
34645;SDS011;20857;47.808;12.482;2023-07-02T00:28:01;1999.90;;;999.90;;
34645;SDS011;20857;47.808;12.482;2023-07-02T00:30:27;1999.90;;;999.90;;
34645;SDS011;20857;47.808;12.482;2023-07-02T00:32:52;1999.90;;;999.90;;
34645;SDS011;20857;47.808;12.482;2023-07-02T00:35:18;1999.90;;;999.90;;
34645;SDS011;20857;47.808;12.482;2023-07-02T00:37:43;1387.22;;;592.08;;
34645;SDS011;20857;47.808;12.482;2023-07-02T00:40:09;1999.90;;;999.90;;
34645;SDS011;20857;47.808;12.482;2023-07-02T00:42:35;1999.90;;;999.90;;
34645;SDS011;20857;47.808;12.482;2023-07-02T00:45:01;1999.90;;;999.90;;
34645;SDS011;20857;47.808;12.482;2023-07-02T00:47:30;1999.90;;;999.90;;
34645;SDS011;20857;47.808;12.482;2023-07-02T00:49:58;1999.90;;;999.90;;
34645;SDS011;20857;47.808;12.482;2023-07-02T00:52:24;1999.90;;;999.90;;
34645;SDS011;20857;47.808;12.482;2023-07-02T00:54:51;1999.90;;;999.90;;
34645;SDS011;20857;47.808;12.482;2023-07-02T00:57:16;1999.90;;;999.90;;
34645;SDS011;20857;47.808;12.482;2023-07-02T00:59:42;1999.90;;;999.90;;
34645;SDS011;20857;47.808;12.482;2023-07-02T01:02:08;1999.90;;;999.90;;
34645;SDS011;20857;47.808;12.482;2023-07-02T01:04:34;1999.90;;;999.90;;
34645;SDS011;20857;47.808;12.482;2023-07-02T01:06:59;1999.90;;;999.90;;
34645;SDS011;20857;47.808;12.482;2023-07-02T01:09:25;1999.90;;;999.90;;
34645;SDS011;20857;47.808;12.482;2023-07-02T01:11:58;1999.90;;;999.90;;
34645;SDS011;20857;47.808;12.482;2023-07-02T01:14:43;1999.90;;;999.90;;
34645;SDS011;20857;47.808;12.482;2023-07-02T01:17:15;1999.90;;;999.90;;
34645;SDS011;20857;47.808;12.482;2023-07-02T01:19:50;1999.90;;;999.90;;
34645;SDS011;20857;47.808;12.482;2023-07-02T01:22:25;1999.90;;;999.90;;
34645;SDS011;20857;47.808;12.482;2023-07-02T01:24:52;1999.90;;;999.90;;
34645;SDS011;20857;47.808;12.482;2023-07-02T01:27:19;1999.90;;;999.90;;
34645;SDS011;20857;47.808;12.482;2023-07-02T01:29:46;1999.90;;;999.90;;
34645;SDS011;20857;47.808;12.482;2023-07-02T01:32:15;1999.90;;;999.90;;
34645;SDS011;20857;47.808;12.482;2023-07-02T01:34:41;1999.90;;;999.90;;
34645;SDS011;20857;47.808;12.482;2023-07-02T01:37:08;1999.90;;;999.90;;
34645;SDS011;20857;47.808;12.482;2023-07-02T01:39:34;1999.90;;;999.90;;
34645;SDS011;20857;47.808;12.482;2023-07-02T01:42:07;1999.90;;;999.90;;
34645;SDS011;20857;47.808;12.482;2023-07-02T01:44:34;1999.90;;;999.90;;
34645;SDS011;20857;47.808;12.482;2023-07-02T01:47:00;1999.90;;;999.90;;
34645;SDS011;20857;47.808;12.482;2023-07-02T01:49:26;1999.90;;;999.90;;
34645;SDS011;20857;47.808;12.482;2023-07-02T01:51:52;1999.90;;;999.90;;
34645;SDS011;20857;47.808;12.482;2023-07-02T01:54:18;1999.90;;;999.90;;
34645;SDS011;20857;47.808;12.482;2023-07-02T01:56:45;1999.90;;;999.90;;
34645;SDS011;20857;47.808;12.482;2023-07-02T01:59:10;1999.90;;;999.90;;
34645;SDS011;20857;47.808;12.482;2023-07-02T02:01:36;1999.90;;;999.90;;
34645;SDS011;20857;47.808;12.482;2023-07-02T02:04:05;1999.90;;;999.90;;
34645;SDS011;20857;47.808;12.482;2023-07-02T02:06:31;1999.90;;;999.90;;
34645;SDS011;20857;47.808;12.482;2023-07-02T02:08:57;1999.90;;;999.90;;
34645;SDS011;20857;47.808;12.482;2023-07-02T02:11:22;669.38;;;152.88;;
34645;SDS011;20857;47.808;12.482;2023-07-02T02:13:48;1397.75;;;366.60;;
34645;SDS011;20857;47.808;12.482;2023-07-02T02:16:14;735.55;;;193.82;;
34645;SDS011;20857;47.808;12.482;2023-07-02T02:18:40;995.97;;;271.67;;
34645;SDS011;20857;47.808;12.482;2023-07-02T02:21:06;1173.70;;;283.92;;
34645;SDS011;20857;47.808;12.482;2023-07-02T02:23:32;908.20;;;427.17;;
34645;SDS011;20857;47.808;12.482;2023-07-02T02:25:57;1093.70;;;417.58;;
34645;SDS011;20857;47.808;12.482;2023-07-02T02:28:23;1630.20;;;780.40;;
34645;SDS011;20857;47.808;12.482;2023-07-02T02:30:48;1999.90;;;999.90;;
34645;SDS011;20857;47.808;12.482;2023-07-02T02:33:15;1704.15;;;810.13;;
34645;SDS011;20857;47.808;12.482;2023-07-02T02:35:41;1542.72;;;760.58;;
34645;SDS011;20857;47.808;12.482;2023-07-02T02:38:06;1999.90;;;999.90;;
34645;SDS011;20857;47.808;12.482;2023-07-02T02:40:32;1999.90;;;999.90;;
34645;SDS011;20857;47.808;12.482;2023-07-02T02:42:57;1999.90;;;999.90;;
34645;SDS011;20857;47.808;12.482;2023-07-02T02:45:23;1999.90;;;999.90;;
34645;SDS011;20857;47.808;12.482;2023-07-02T02:47:48;1999.90;;;999.90;;
34645;SDS011;20857;47.808;12.482;2023-07-02T02:50:14;1615.30;;;778.25;;
34645;SDS011;20857;47.808;12.482;2023-07-02T02:52:40;963.70;;;484.60;;
34645;SDS011;20857;47.808;12.482;2023-07-02T02:55:06;1028.57;;;466.70;;
34645;SDS011;20857;47.808;12.482;2023-07-02T02:57:32;852.28;;;439.25;;
34645;SDS011;20857;47.808;12.482;2023-07-02T02:59:58;1104.20;;;531.03;;
34645;SDS011;20857;47.808;12.482;2023-07-02T03:02:24;983.10;;;398.55;;
34645;SDS011;20857;47.808;12.482;2023-07-02T03:04:50;1046.93;;;434.92;;
34645;SDS011;20857;47.808;12.482;2023-07-02T03:07:15;949.60;;;354.48;;
34645;SDS011;20857;47.808;12.482;2023-07-02T03:09:41;1106.97;;;366.88;;
34645;SDS011;20857;47.808;12.482;2023-07-02T03:12:07;950.75;;;268.60;;
34645;SDS011;20857;47.808;12.482;2023-07-02T03:14:32;942.88;;;397.58;;
34645;SDS011;20857;47.808;12.482;2023-07-02T03:16:58;969.40;;;373.23;;
34645;SDS011;20857;47.808;12.482;2023-07-02T03:19:24;1038.13;;;398.02;;
34645;SDS011;20857;47.808;12.482;2023-07-02T03:21:50;1079.03;;;339.98;;
34645;SDS011;20857;47.808;12.482;2023-07-02T03:24:16;1607.57;;;775.63;;
34645;SDS011;20857;47.808;12.482;2023-07-02T03:26:42;1999.90;;;999.90;;
34645;SDS011;20857;47.808;12.482;2023-07-02T03:29:09;1999.90;;;999.90;;
34645;SDS011;20857;47.808;12.482;2023-07-02T03:31:35;1521.57;;;755.50;;
34645;SDS011;20857;47.808;12.482;2023-07-02T03:34:06;1999.90;;;999.90;;
34645;SDS011;20857;47.808;12.482;2023-07-02T03:36:33;1999.90;;;999.90;;
34645;SDS011;20857;47.808;12.482;2023-07-02T03:38:58;1999.90;;;999.90;;
34645;SDS011;20857;47.808;12.482;2023-07-02T03:41:24;1999.90;;;999.90;;
34645;SDS011;20857;47.808;12.482;2023-07-02T03:43:50;1999.90;;;999.90;;
34645;SDS011;20857;47.808;12.482;2023-07-02T03:46:15;1999.90;;;999.90;;
34645;SDS011;20857;47.808;12.482;2023-07-02T03:48:41;1999.90;;;999.90;;
34645;SDS011;20857;47.808;12.482;2023-07-02T03:51:07;1999.90;;;999.90;;
34645;SDS011;20857;47.808;12.482;2023-07-02T03:53:33;1999.90;;;999.90;;
34645;SDS011;20857;47.808;12.482;2023-07-02T03:55:58;1999.90;;;999.90;;
34645;SDS011;20857;47.808;12.482;2023-07-02T03:58:24;1999.90;;;999.90;;
34645;SDS011;20857;47.808;12.482;2023-07-02T04:00:50;1999.90;;;999.90;;
34645;SDS011;20857;47.808;12.482;2023-07-02T04:03:16;1999.90;;;999.90;;
34645;SDS011;20857;47.808;12.482;2023-07-02T04:05:42;1999.90;;;999.90;;
34645;SDS011;20857;47.808;12.482;2023-07-02T04:08:08;1999.90;;;999.90;;
34645;SDS011;20857;47.808;12.482;2023-07-02T04:10:34;1999.90;;;999.90;;
34645;SDS011;20857;47.808;12.482;2023-07-02T04:12:59;1999.90;;;999.90;;
34645;SDS011;20857;47.808;12.482;2023-07-02T04:15:25;1999.90;;;999.90;;
34645;SDS011;20857;47.808;12.482;2023-07-02T04:17:51;1999.90;;;999.90;;
34645;SDS011;20857;47.808;12.482;2023-07-02T04:20:17;1999.90;;;999.90;;
34645;SDS011;20857;47.808;12.482;2023-07-02T04:22:44;1999.90;;;999.90;;
34645;SDS011;20857;47.808;12.482;2023-07-02T04:25:11;1999.90;;;999.90;;
34645;SDS011;20857;47.808;12.482;2023-07-02T04:27:40;1999.90;;;999.90;;
34645;SDS011;20857;47.808;12.482;2023-07-02T04:30:06;1999.90;;;999.90;;
34645;SDS011;20857;47.808;12.482;2023-07-02T04:32:33;1999.90;;;999.90;;
34645;SDS011;20857;47.808;12.482;2023-07-02T04:34:59;1999.90;;;999.90;;
34645;SDS011;20857;47.808;12.482;2023-07-02T04:37:25;1999.90;;;999.90;;
34645;SDS011;20857;47.808;12.482;2023-07-02T04:39:52;1999.90;;;999.90;;
34645;SDS011;20857;47.808;12.482;2023-07-02T04:42:18;1999.90;;;999.90;;
34645;SDS011;20857;47.808;12.482;2023-07-02T04:44:43;695.95;;;631.58;;
34645;SDS011;20857;47.808;12.482;2023-07-02T04:47:09;1999.90;;;999.90;;
34645;SDS011;20857;47.808;12.482;2023-07-02T04:49:35;1999.90;;;999.90;;
34645;SDS011;20857;47.808;12.482;2023-07-02T04:52:00;1999.90;;;999.90;;
34645;SDS011;20857;47.808;12.482;2023-07-02T04:54:26;1282.15;;;754.22;;
34645;SDS011;20857;47.808;12.482;2023-07-02T04:56:52;1999.90;;;999.90;;
34645;SDS011;20857;47.808;12.482;2023-07-02T04:59:19;1999.90;;;999.90;;
34645;SDS011;20857;47.808;12.482;2023-07-02T05:01:46;704.22;;;445.98;;
34645;SDS011;20857;47.808;12.482;2023-07-02T05:04:11;1999.90;;;999.90;;
34645;SDS011;20857;47.808;12.482;2023-07-02T05:06:37;1999.90;;;999.90;;
34645;SDS011;20857;47.808;12.482;2023-07-02T05:09:03;1999.90;;;999.90;;
34645;SDS011;20857;47.808;12.482;2023-07-02T05:11:29;1999.90;;;999.90;;
34645;SDS011;20857;47.808;12.482;2023-07-02T05:13:54;1999.90;;;999.90;;
34645;SDS011;20857;47.808;12.482;2023-07-02T05:16:20;1999.90;;;999.90;;
34645;SDS011;20857;47.808;12.482;2023-07-02T05:18:45;1999.90;;;999.90;;
34645;SDS011;20857;47.808;12.482;2023-07-02T05:21:11;1999.90;;;999.90;;
34645;SDS011;20857;47.808;12.482;2023-07-02T05:23:37;1999.90;;;999.90;;
34645;SDS011;20857;47.808;12.482;2023-07-02T05:26:02;1999.90;;;999.90;;
34645;SDS011;20857;47.808;12.482;2023-07-02T05:28:28;1999.90;;;999.90;;
34645;SDS011;20857;47.808;12.482;2023-07-02T05:30:54;1999.90;;;999.90;;
34645;SDS011;20857;47.808;12.482;2023-07-02T05:33:19;1999.90;;;999.90;;
34645;SDS011;20857;47.808;12.482;2023-07-02T05:35:47;1999.90;;;999.90;;
34645;SDS011;20857;47.808;12.482;2023-07-02T05:38:12;1999.90;;;999.90;;
34645;SDS011;20857;47.808;12.482;2023-07-02T05:40:38;1999.90;;;999.90;;
34645;SDS011;20857;47.808;12.482;2023-07-02T05:43:04;1999.90;;;999.90;;
34645;SDS011;20857;47.808;12.482;2023-07-02T05:45:29;1999.90;;;999.90;;
34645;SDS011;20857;47.808;12.482;2023-07-02T05:47:55;1999.90;;;999.90;;
34645;SDS011;20857;47.808;12.482;2023-07-02T05:50:21;1999.90;;;999.90;;
34645;SDS011;20857;47.808;12.482;2023-07-02T05:52:46;1999.90;;;999.90;;
34645;SDS011;20857;47.808;12.482;2023-07-02T05:55:12;1999.90;;;999.90;;
34645;SDS011;20857;47.808;12.482;2023-07-02T05:57:38;1999.90;;;999.90;;
34645;SDS011;20857;47.808;12.482;2023-07-02T06:00:06;1999.90;;;999.90;;
34645;SDS011;20857;47.808;12.482;2023-07-02T06:02:33;1999.90;;;999.90;;
34645;SDS011;20857;47.808;12.482;2023-07-02T06:04:58;1999.90;;;999.90;;
34645;SDS011;20857;47.808;12.482;2023-07-02T06:07:26;1999.90;;;999.90;;
34645;SDS011;20857;47.808;12.482;2023-07-02T06:09:52;1999.90;;;999.90;;
34645;SDS011;20857;47.808;12.482;2023-07-02T06:12:18;1999.90;;;999.90;;
34645;SDS011;20857;47.808;12.482;2023-07-02T06:14:45;1999.90;;;999.90;;
34645;SDS011;20857;47.808;12.482;2023-07-02T06:17:11;1999.90;;;999.90;;
34645;SDS011;20857;47.808;12.482;2023-07-02T06:19:37;1999.90;;;999.90;;
34645;SDS011;20857;47.808;12.482;2023-07-02T06:22:03;1999.90;;;999.90;;
34645;SDS011;20857;47.808;12.482;2023-07-02T06:24:29;1999.90;;;999.90;;
34645;SDS011;20857;47.808;12.482;2023-07-02T06:26:55;1999.90;;;999.90;;
34645;SDS011;20857;47.808;12.482;2023-07-02T06:31:50;1999.90;;;999.90;;
34645;SDS011;20857;47.808;12.482;2023-07-02T06:34:16;1999.90;;;999.90;;
34645;SDS011;20857;47.808;12.482;2023-07-02T06:36:41;1999.90;;;999.90;;
34645;SDS011;20857;47.808;12.482;2023-07-02T06:39:07;1999.90;;;999.90;;
34645;SDS011;20857;47.808;12.482;2023-07-02T06:41:36;1999.90;;;999.90;;
34645;SDS011;20857;47.808;12.482;2023-07-02T06:44:02;1999.90;;;999.90;;
34645;SDS011;20857;47.808;12.482;2023-07-02T06:46:28;900.65;;;613.20;;
34645;SDS011;20857;47.808;12.482;2023-07-02T06:48:55;1999.90;;;999.90;;
34645;SDS011;20857;47.808;12.482;2023-07-02T06:51:21;1999.90;;;999.90;;
34645;SDS011;20857;47.808;12.482;2023-07-02T06:53:46;668.13;;;601.90;;
34645;SDS011;20857;47.808;12.482;2023-07-02T06:56:12;1999.90;;;999.90;;
34645;SDS011;20857;47.808;12.482;2023-07-02T06:58:44;1999.90;;;999.90;;
34645;SDS011;20857;47.808;12.482;2023-07-02T07:01:10;1162.32;;;645.22;;
34645;SDS011;20857;47.808;12.482;2023-07-02T07:03:35;1999.90;;;999.90;;
34645;SDS011;20857;47.808;12.482;2023-07-02T07:06:01;1999.90;;;999.90;;
34645;SDS011;20857;47.808;12.482;2023-07-02T07:08:27;1999.90;;;999.90;;
34645;SDS011;20857;47.808;12.482;2023-07-02T07:10:53;1236.78;;;712.10;;
34645;SDS011;20857;47.808;12.482;2023-07-02T07:13:19;1999.90;;;999.90;;
34645;SDS011;20857;47.808;12.482;2023-07-02T07:15:45;1999.90;;;999.90;;
34645;SDS011;20857;47.808;12.482;2023-07-02T07:18:10;1999.90;;;999.90;;
34645;SDS011;20857;47.808;12.482;2023-07-02T07:20:36;1999.90;;;999.90;;
34645;SDS011;20857;47.808;12.482;2023-07-02T07:23:03;1999.90;;;999.90;;
34645;SDS011;20857;47.808;12.482;2023-07-02T07:25:29;626.55;;;559.90;;
34645;SDS011;20857;47.808;12.482;2023-07-02T07:27:54;888.97;;;591.22;;
34645;SDS011;20857;47.808;12.482;2023-07-02T07:30:20;595.17;;;540.53;;
34645;SDS011;20857;47.808;12.482;2023-07-02T07:32:51;388.63;;;350.80;;
34645;SDS011;20857;47.808;12.482;2023-07-02T07:35:18;311.10;;;285.27;;
34645;SDS011;20857;47.808;12.482;2023-07-02T07:37:46;1208.10;;;679.95;;
34645;SDS011;20857;47.808;12.482;2023-07-02T07:40:11;457.40;;;417.40;;
34645;SDS011;20857;47.808;12.482;2023-07-02T07:42:37;892.42;;;603.85;;
34645;SDS011;20857;47.808;12.482;2023-07-02T07:45:03;345.30;;;315.08;;
34645;SDS011;20857;47.808;12.482;2023-07-02T07:47:32;1999.90;;;999.90;;
34645;SDS011;20857;47.808;12.482;2023-07-02T07:49:58;1999.90;;;999.90;;
34645;SDS011;20857;47.808;12.482;2023-07-02T07:52:23;1999.90;;;999.90;;
34645;SDS011;20857;47.808;12.482;2023-07-02T07:54:49;1999.90;;;999.90;;
34645;SDS011;20857;47.808;12.482;2023-07-02T07:57:15;1999.90;;;999.90;;
34645;SDS011;20857;47.808;12.482;2023-07-02T07:59:40;1999.90;;;999.90;;
34645;SDS011;20857;47.808;12.482;2023-07-02T08:02:06;1999.90;;;999.90;;
34645;SDS011;20857;47.808;12.482;2023-07-02T08:04:31;1999.90;;;999.90;;
34645;SDS011;20857;47.808;12.482;2023-07-02T08:06:57;1999.90;;;999.90;;
34645;SDS011;20857;47.808;12.482;2023-07-02T08:09:23;1999.90;;;999.90;;
34645;SDS011;20857;47.808;12.482;2023-07-02T08:11:49;1999.90;;;999.90;;
34645;SDS011;20857;47.808;12.482;2023-07-02T08:14:16;1999.90;;;999.90;;
34645;SDS011;20857;47.808;12.482;2023-07-02T08:16:43;1999.90;;;999.90;;
34645;SDS011;20857;47.808;12.482;2023-07-02T08:19:09;1999.90;;;999.90;;
34645;SDS011;20857;47.808;12.482;2023-07-02T08:21:35;1999.90;;;999.90;;
34645;SDS011;20857;47.808;12.482;2023-07-02T08:24:01;1999.90;;;999.90;;
34645;SDS011;20857;47.808;12.482;2023-07-02T08:26:27;1999.90;;;999.90;;
34645;SDS011;20857;47.808;12.482;2023-07-02T08:28:53;1999.90;;;999.90;;
34645;SDS011;20857;47.808;12.482;2023-07-02T08:31:19;1999.90;;;999.90;;
34645;SDS011;20857;47.808;12.482;2023-07-02T08:33:44;1999.90;;;999.90;;
34645;SDS011;20857;47.808;12.482;2023-07-02T08:36:10;1999.90;;;999.90;;
34645;SDS011;20857;47.808;12.482;2023-07-02T08:38:35;1999.90;;;999.90;;
34645;SDS011;20857;47.808;12.482;2023-07-02T08:41:04;1999.90;;;999.90;;
34645;SDS011;20857;47.808;12.482;2023-07-02T08:43:30;1999.90;;;999.90;;
34645;SDS011;20857;47.808;12.482;2023-07-02T08:45:56;1999.90;;;999.90;;
34645;SDS011;20857;47.808;12.482;2023-07-02T08:48:22;1999.90;;;999.90;;
34645;SDS011;20857;47.808;12.482;2023-07-02T08:50:49;1999.90;;;999.90;;
34645;SDS011;20857;47.808;12.482;2023-07-02T08:53:15;1999.90;;;999.90;;
34645;SDS011;20857;47.808;12.482;2023-07-02T08:55:41;1999.90;;;999.90;;
34645;SDS011;20857;47.808;12.482;2023-07-02T08:58:06;1999.90;;;999.90;;
34645;SDS011;20857;47.808;12.482;2023-07-02T09:00:32;1999.90;;;999.90;;
34645;SDS011;20857;47.808;12.482;2023-07-02T09:03:14;1999.90;;;999.90;;
34645;SDS011;20857;47.808;12.482;2023-07-02T09:05:50;1999.90;;;999.90;;
34645;SDS011;20857;47.808;12.482;2023-07-02T09:08:26;1999.90;;;999.90;;
34645;SDS011;20857;47.808;12.482;2023-07-02T09:10:53;1999.90;;;999.90;;
34645;SDS011;20857;47.808;12.482;2023-07-02T09:13:19;1999.90;;;999.90;;
34645;SDS011;20857;47.808;12.482;2023-07-02T09:15:45;1999.90;;;999.90;;
34645;SDS011;20857;47.808;12.482;2023-07-02T09:18:20;1999.90;;;999.90;;
34645;SDS011;20857;47.808;12.482;2023-07-02T09:20:55;1634.53;;;815.75;;
34645;SDS011;20857;47.808;12.482;2023-07-02T09:23:21;1999.90;;;999.90;;
34645;SDS011;20857;47.808;12.482;2023-07-02T09:25:47;1999.90;;;999.90;;
34645;SDS011;20857;47.808;12.482;2023-07-02T09:28:20;1999.90;;;999.90;;
34645;SDS011;20857;47.808;12.482;2023-07-02T09:30:54;1999.90;;;999.90;;
34645;SDS011;20857;47.808;12.482;2023-07-02T09:33:28;1999.90;;;999.90;;
34645;SDS011;20857;47.808;12.482;2023-07-02T09:35:54;1999.90;;;999.90;;
34645;SDS011;20857;47.808;12.482;2023-07-02T09:38:20;1999.90;;;999.90;;
34645;SDS011;20857;47.808;12.482;2023-07-02T09:40:48;1999.90;;;999.90;;
34645;SDS011;20857;47.808;12.482;2023-07-02T09:43:16;1999.90;;;999.90;;
34645;SDS011;20857;47.808;12.482;2023-07-02T09:45:50;931.65;;;209.07;;
34645;SDS011;20857;47.808;12.482;2023-07-02T09:48:17;1751.75;;;818.33;;
34645;SDS011;20857;47.808;12.482;2023-07-02T09:50:43;979.25;;;381.77;;
34645;SDS011;20857;47.808;12.482;2023-07-02T09:53:10;1605.10;;;771.00;;
34645;SDS011;20857;47.808;12.482;2023-07-02T09:55:37;1678.63;;;795.90;;
34645;SDS011;20857;47.808;12.482;2023-07-02T09:58:04;1693.05;;;801.63;;
34645;SDS011;20857;47.808;12.482;2023-07-02T10:00:30;1999.90;;;999.90;;
34645;SDS011;20857;47.808;12.482;2023-07-02T10:02:56;1999.90;;;999.90;;
34645;SDS011;20857;47.808;12.482;2023-07-02T10:05:40;1999.90;;;999.90;;
34645;SDS011;20857;47.808;12.482;2023-07-02T10:08:13;1999.90;;;999.90;;
34645;SDS011;20857;47.808;12.482;2023-07-02T10:10:41;1999.90;;;999.90;;
34645;SDS011;20857;47.808;12.482;2023-07-02T10:13:07;940.75;;;641.17;;
34645;SDS011;20857;47.808;12.482;2023-07-02T10:15:33;487.23;;;437.70;;
34645;SDS011;20857;47.808;12.482;2023-07-02T10:18:03;1999.90;;;999.90;;
34645;SDS011;20857;47.808;12.482;2023-07-02T10:20:39;1999.90;;;999.90;;
34645;SDS011;20857;47.808;12.482;2023-07-02T10:23:06;1999.90;;;999.90;;
34645;SDS011;20857;47.808;12.482;2023-07-02T10:25:34;1999.90;;;999.90;;
34645;SDS011;20857;47.808;12.482;2023-07-02T10:28:13;907.10;;;615.45;;
34645;SDS011;20857;47.808;12.482;2023-07-02T10:30:39;1999.90;;;999.90;;
34645;SDS011;20857;47.808;12.482;2023-07-02T10:35:34;1999.90;;;999.90;;
34645;SDS011;20857;47.808;12.482;2023-07-02T10:38:00;342.65;;;302.70;;
34645;SDS011;20857;47.808;12.482;2023-07-02T10:40:25;1999.90;;;999.90;;
34645;SDS011;20857;47.808;12.482;2023-07-02T10:42:52;1999.90;;;999.90;;
34645;SDS011;20857;47.808;12.482;2023-07-02T10:45:18;236.75;;;177.25;;
34645;SDS011;20857;47.808;12.482;2023-07-02T10:47:44;282.13;;;180.52;;
34645;SDS011;20857;47.808;12.482;2023-07-02T10:50:20;1999.90;;;999.90;;
34645;SDS011;20857;47.808;12.482;2023-07-02T10:52:47;1999.90;;;999.90;;
34645;SDS011;20857;47.808;12.482;2023-07-02T10:57:47;1999.90;;;999.90;;
34645;SDS011;20857;47.808;12.482;2023-07-02T11:00:17;1999.90;;;999.90;;
34645;SDS011;20857;47.808;12.482;2023-07-02T11:02:44;1999.90;;;999.90;;
34645;SDS011;20857;47.808;12.482;2023-07-02T11:05:10;1999.90;;;999.90;;
34645;SDS011;20857;47.808;12.482;2023-07-02T11:07:39;1999.90;;;999.90;;
34645;SDS011;20857;47.808;12.482;2023-07-02T11:10:06;1999.90;;;999.90;;
34645;SDS011;20857;47.808;12.482;2023-07-02T11:12:33;1999.90;;;999.90;;
34645;SDS011;20857;47.808;12.482;2023-07-02T11:15:12;1999.90;;;999.90;;
34645;SDS011;20857;47.808;12.482;2023-07-02T11:17:39;1999.90;;;999.90;;
34645;SDS011;20857;47.808;12.482;2023-07-02T11:20:06;1999.90;;;999.90;;
34645;SDS011;20857;47.808;12.482;2023-07-02T11:22:36;1999.90;;;999.90;;
34645;SDS011;20857;47.808;12.482;2023-07-02T11:25:09;1999.90;;;999.90;;
34645;SDS011;20857;47.808;12.482;2023-07-02T11:27:35;1999.90;;;999.90;;
34645;SDS011;20857;47.808;12.482;2023-07-02T11:30:00;1999.90;;;999.90;;
34645;SDS011;20857;47.808;12.482;2023-07-02T11:32:26;1999.90;;;999.90;;
34645;SDS011;20857;47.808;12.482;2023-07-02T11:34:54;1999.90;;;999.90;;
34645;SDS011;20857;47.808;12.482;2023-07-02T11:37:20;1999.90;;;999.90;;
34645;SDS011;20857;47.808;12.482;2023-07-02T11:39:46;1999.90;;;999.90;;
34645;SDS011;20857;47.808;12.482;2023-07-02T11:42:11;1999.90;;;999.90;;
34645;SDS011;20857;47.808;12.482;2023-07-02T11:44:38;1999.90;;;999.90;;
34645;SDS011;20857;47.808;12.482;2023-07-02T11:47:03;1999.90;;;999.90;;
34645;SDS011;20857;47.808;12.482;2023-07-02T11:49:30;1999.90;;;999.90;;
34645;SDS011;20857;47.808;12.482;2023-07-02T11:51:55;1999.90;;;999.90;;
34645;SDS011;20857;47.808;12.482;2023-07-02T11:54:21;1999.90;;;999.90;;
34645;SDS011;20857;47.808;12.482;2023-07-02T11:56:47;1999.90;;;999.90;;
34645;SDS011;20857;47.808;12.482;2023-07-02T11:59:13;1999.90;;;999.90;;
34645;SDS011;20857;47.808;12.482;2023-07-02T12:01:39;1999.90;;;999.90;;
34645;SDS011;20857;47.808;12.482;2023-07-02T12:04:04;1999.90;;;999.90;;
34645;SDS011;20857;47.808;12.482;2023-07-02T12:06:32;1999.90;;;999.90;;
34645;SDS011;20857;47.808;12.482;2023-07-02T12:08:58;1999.90;;;999.90;;
34645;SDS011;20857;47.808;12.482;2023-07-02T12:11:24;1999.90;;;999.90;;
34645;SDS011;20857;47.808;12.482;2023-07-02T12:13:49;1999.90;;;999.90;;
34645;SDS011;20857;47.808;12.482;2023-07-02T12:16:15;1999.90;;;999.90;;
34645;SDS011;20857;47.808;12.482;2023-07-02T12:18:41;1999.90;;;999.90;;
34645;SDS011;20857;47.808;12.482;2023-07-02T12:21:06;1999.90;;;999.90;;
34645;SDS011;20857;47.808;12.482;2023-07-02T12:23:32;1999.90;;;999.90;;
34645;SDS011;20857;47.808;12.482;2023-07-02T12:25:57;1999.90;;;999.90;;
34645;SDS011;20857;47.808;12.482;2023-07-02T12:28:23;1999.90;;;999.90;;
34645;SDS011;20857;47.808;12.482;2023-07-02T12:30:49;1999.90;;;999.90;;
34645;SDS011;20857;47.808;12.482;2023-07-02T12:33:14;1999.90;;;999.90;;
34645;SDS011;20857;47.808;12.482;2023-07-02T12:35:40;1999.90;;;999.90;;
34645;SDS011;20857;47.808;12.482;2023-07-02T12:38:05;1999.90;;;999.90;;
34645;SDS011;20857;47.808;12.482;2023-07-02T12:40:33;1999.90;;;999.90;;
34645;SDS011;20857;47.808;12.482;2023-07-02T12:42:58;1999.90;;;999.90;;
34645;SDS011;20857;47.808;12.482;2023-07-02T12:45:24;1999.90;;;999.90;;
34645;SDS011;20857;47.808;12.482;2023-07-02T12:47:50;1999.90;;;999.90;;
34645;SDS011;20857;47.808;12.482;2023-07-02T12:50:15;1999.90;;;999.90;;
34645;SDS011;20857;47.808;12.482;2023-07-02T12:52:41;844.80;;;765.38;;
34645;SDS011;20857;47.808;12.482;2023-07-02T12:55:06;898.92;;;816.10;;
34645;SDS011;20857;47.808;12.482;2023-07-02T12:57:34;839.33;;;764.08;;
34645;SDS011;20857;47.808;12.482;2023-07-02T12:59:59;871.88;;;790.88;;
34645;SDS011;20857;47.808;12.482;2023-07-02T13:02:25;844.65;;;766.72;;
34645;SDS011;20857;47.808;12.482;2023-07-02T13:04:51;1422.50;;;881.90;;
34645;SDS011;20857;47.808;12.482;2023-07-02T13:07:17;579.47;;;519.75;;
34645;SDS011;20857;47.808;12.482;2023-07-02T13:09:42;1388.72;;;851.92;;
34645;SDS011;20857;47.808;12.482;2023-07-02T13:12:09;1999.90;;;999.90;;
34645;SDS011;20857;47.808;12.482;2023-07-02T13:14:35;1999.90;;;999.90;;
34645;SDS011;20857;47.808;12.482;2023-07-02T13:17:01;966.92;;;676.92;;
34645;SDS011;20857;47.808;12.482;2023-07-02T13:19:29;1999.90;;;999.90;;
34645;SDS011;20857;47.808;12.482;2023-07-02T13:21:55;1999.90;;;999.90;;
34645;SDS011;20857;47.808;12.482;2023-07-02T13:24:21;1999.90;;;999.90;;
34645;SDS011;20857;47.808;12.482;2023-07-02T13:26:47;1999.90;;;999.90;;
34645;SDS011;20857;47.808;12.482;2023-07-02T13:29:13;1999.90;;;999.90;;
34645;SDS011;20857;47.808;12.482;2023-07-02T13:31:39;1999.90;;;999.90;;
34645;SDS011;20857;47.808;12.482;2023-07-02T13:34:04;1999.90;;;999.90;;
34645;SDS011;20857;47.808;12.482;2023-07-02T13:36:30;1999.90;;;999.90;;
34645;SDS011;20857;47.808;12.482;2023-07-02T13:38:56;1999.90;;;999.90;;